Tyringham, MA

3:11 AM EST on January 31, 2015 (GMT -0500)
APRSWXNET Becket MA US | Change Station
CLOSE
Current Station
Personal Weather Station
Location: Tyringham, MA
Elevation: 1377 ft
Nearby Weather Stations

Elev 1377 ft 42.26 °N, 73.13 °W | Updated 44 minutes ago

Clear
Clear
0 °F
Feels Like 0 °F
N
2
Wind Variable Wind from NNW
Gusts 8.0 mph

Today
High -- | Low -- °F
--% Chance of Precip.
Yesterday
High -- | Low -- °F
Precip. -- in
7:07 AM 5:05 PM
Waxing Gibbous, 88% visible
Pressure 30.01 in
Visibility 6.0 miles
Clouds Clear
Windchill 0 °F
Dew Point -5 °F
Humidity 79%
Rainfall 0.00 in
Snow Depth Not available.
UV 0 out of 12
Pollen .10 out of 12
Air Quality Not available.
Flu Activity Not available.
METAR KPSF 310754Z AUTO 29018G26KT 6SM HZ CLR M18/M21 A2993 RMK AO2 PK WND 29027/0727 SLP162 T11781211

More Conditions Fewer Conditions

Pressure 30.01 in
Visibility 6.0 miles
Clouds Clear
Windchill 0 °F
Dew Point -5 °F
Humidity 79%
Rainfall 0.00 in
Snow Depth Not available.
UV 0 out of 12
Pollen .10 out of 12
Air Quality Not available.
Flu Activity Not available.
METAR KPSF 310754Z AUTO 29018G26KT 6SM HZ CLR M18/M21 A2993 RMK AO2 PK WND 29027/0727 SLP162 T11781211

More Conditions Fewer Conditions

10-Day Weather Forecast

Almanac

Astronomy

Jan. 31, 2015 Rise Set
Actual Time
Civil Twilight
Nautical Twilight
Astronomical Twilight
Moon
Length of Visible Light
Length of Day
Tomorrow will be .
, % of the Moon is Illuminated

Today's Extremes

State Highs State Lows

Community

WunderPhotos

Upload Photos

1,792,019 photos uploaded!

WunderBlogs® & News

Nearby

Air Quality

  Air Quality AQ Index Pollutant
Not available.

Snow Depth

Station Depth Elevation

Earthquake Activity

City Distance Mag. Time & Date
Minimum magnitude displayed is 2.5.

Coastal Water Temperatures

Place Temperature

Nearby Weather Stations